createdAt,value
2023-02-12T00:01:18.977Z,9.47
2023-02-12T00:03:45.651Z,9.48
2023-02-12T00:06:15.512Z,9.46
2023-02-12T00:08:42.941Z,9.45
2023-02-12T00:11:18.469Z,9.46
2023-02-12T00:13:45.402Z,9.47
2023-02-12T00:16:18.106Z,9.42
2023-02-12T00:18:45.928Z,9.42
2023-02-12T00:21:13.933Z,9.38
2023-02-12T00:23:43.752Z,9.39
2023-02-12T00:26:13.093Z,9.38
2023-02-12T00:28:39.924Z,9.28
2023-02-12T00:31:11.875Z,9.29
2023-02-12T00:33:38.792Z,9.29
2023-02-12T00:36:06.092Z,9.29
2023-02-12T00:38:32.939Z,9.33
2023-02-12T00:40:59.530Z,9.25
2023-02-12T00:43:26.052Z,9.35
2023-02-12T00:45:52.853Z,9.36
2023-02-12T00:48:19.554Z,9.33
2023-02-12T00:50:48.080Z,9.30
2023-02-12T00:53:15.006Z,9.26
2023-02-12T00:55:41.682Z,9.15
2023-02-12T00:58:08.514Z,9.18
2023-02-12T01:00:35.304Z,9.24
2023-02-12T01:03:02.186Z,9.26
2023-02-12T01:05:28.819Z,9.26
2023-02-12T01:07:55.330Z,9.27
2023-02-12T01:10:22.024Z,9.29
2023-02-12T01:15:30.330Z,9.20
2023-02-12T01:17:56.813Z,9.19
2023-02-12T01:20:25.004Z,9.21
2023-02-12T01:22:54.671Z,9.21
2023-02-12T01:25:21.226Z,9.26
2023-02-12T01:27:47.928Z,9.27
2023-02-12T01:30:15.915Z,9.27
2023-02-12T01:32:42.894Z,9.29
2023-02-12T01:35:10.474Z,9.27
2023-02-12T01:37:38.005Z,9.29
2023-02-12T01:40:06.585Z,9.26
2023-02-12T01:42:33.252Z,9.21
2023-02-12T01:45:14.732Z,9.17
2023-02-12T01:47:43.047Z,9.15
2023-02-12T01:50:13.017Z,9.09
2023-02-12T01:52:43.538Z,9.12
2023-02-12T01:55:10.877Z,9.11
2023-02-12T01:57:40.976Z,9.11
2023-02-12T02:00:16.721Z,9.08
2023-02-12T02:02:46.048Z,9.11
2023-02-12T02:05:15.380Z,9.05
2023-02-12T02:07:44.292Z,9.05
2023-02-12T02:10:11.067Z,9.03
2023-02-12T02:12:57.368Z,8.99
2023-02-12T02:15:26.507Z,8.99
2023-02-12T02:18:11.650Z,9.01
2023-02-12T02:21:36.509Z,8.96
2023-02-12T02:24:18.717Z,8.88
2023-02-12T02:27:10.321Z,8.97
2023-02-12T02:30:07.513Z,8.95
2023-02-12T02:32:50.523Z,8.97
2023-02-12T02:35:48.483Z,8.96
2023-02-12T02:38:26.221Z,8.95
2023-02-12T02:41:07.736Z,8.95
2023-02-12T02:43:50.220Z,8.95
2023-02-12T02:46:42.347Z,8.90
2023-02-12T02:49:17.486Z,8.95
2023-02-12T02:51:49.850Z,8.90
2023-02-12T02:54:21.416Z,8.91
2023-02-12T02:56:50.896Z,8.92
2023-02-12T02:59:23.470Z,8.93
2023-02-12T03:02:32.029Z,8.93
2023-02-12T03:05:04.304Z,8.94
2023-02-12T03:07:38.796Z,8.95
2023-02-12T03:10:12.283Z,8.91
2023-02-12T03:12:47.805Z,8.94
2023-02-12T03:15:16.879Z,8.94
2023-02-12T03:17:48.943Z,8.90
2023-02-12T03:20:24.523Z,8.91
2023-02-12T03:23:01.595Z,8.88
2023-02-12T03:25:38.643Z,8.89
2023-02-12T03:28:14.265Z,8.87
2023-02-12T03:31:18.023Z,8.92
2023-02-12T03:34:02.317Z,8.90
2023-02-12T03:36:34.676Z,8.87
2023-02-12T03:39:11.739Z,8.84
2023-02-12T03:41:49.572Z,8.87
2023-02-12T03:44:48.099Z,8.85
2023-02-12T03:47:47.192Z,8.80
2023-02-12T03:50:26.306Z,8.76
2023-02-12T03:52:52.872Z,8.84
2023-02-12T03:55:19.777Z,8.82
2023-02-12T03:58:01.253Z,8.74
2023-02-12T04:00:27.932Z,8.79
2023-02-12T04:02:55.098Z,8.81
2023-02-12T04:05:24.483Z,8.76
2023-02-12T04:07:52.662Z,8.82
2023-02-12T04:10:26.694Z,8.80
2023-02-12T04:13:20.673Z,8.75
2023-02-12T04:16:20.026Z,8.80
2023-02-12T04:18:51.780Z,8.75
2023-02-12T04:21:39.288Z,8.77
2023-02-12T04:24:13.611Z,8.75
2023-02-12T04:26:54.477Z,8.70
2023-02-12T04:30:02.533Z,8.76
2023-02-12T04:32:45.036Z,8.74
2023-02-12T04:35:17.591Z,8.75
2023-02-12T04:37:50.878Z,8.71
2023-02-12T04:40:19.996Z,8.73
2023-02-12T04:42:49.022Z,8.72
2023-02-12T04:45:33.495Z,8.71
2023-02-12T04:48:00.594Z,8.63
2023-02-12T04:50:37.515Z,8.67
2023-02-12T04:53:04.006Z,8.67
2023-02-12T04:55:30.459Z,8.67
2023-02-12T04:57:56.919Z,8.67
2023-02-12T05:00:23.598Z,8.67
2023-02-12T05:02:50.122Z,8.68
2023-02-12T05:05:17.066Z,8.65
2023-02-12T05:07:43.595Z,8.68
2023-02-12T05:10:10.423Z,8.70
2023-02-12T05:12:37.216Z,8.71
2023-02-12T05:15:03.795Z,8.70
2023-02-12T05:17:30.261Z,8.71
2023-02-12T05:19:56.752Z,8.62
2023-02-12T05:22:23.290Z,8.65
2023-02-12T05:24:49.797Z,8.64
2023-02-12T05:27:16.293Z,8.63
2023-02-12T05:29:42.866Z,8.63
2023-02-12T05:32:09.464Z,8.68
2023-02-12T05:34:36.641Z,8.67
2023-02-12T05:37:03.284Z,8.67
2023-02-12T05:39:29.793Z,8.65
2023-02-12T05:41:56.288Z,8.64
2023-02-12T05:44:22.818Z,8.68
2023-02-12T05:46:49.348Z,8.70
2023-02-12T05:49:15.891Z,8.72
2023-02-12T05:51:42.401Z,8.76
2023-02-12T05:54:10.361Z,8.77
2023-02-12T05:56:42.326Z,8.74
2023-02-12T05:59:14.648Z,8.72
2023-02-12T06:01:42.855Z,8.68
2023-02-12T06:04:14.548Z,8.68
2023-02-12T06:06:42.179Z,8.65
2023-02-12T06:09:10.559Z,8.63
2023-02-12T06:11:37.746Z,8.60
2023-02-12T06:14:06.181Z,8.62
2023-02-12T06:16:34.113Z,8.63
2023-02-12T06:19:03.391Z,8.59
2023-02-12T06:21:30.508Z,8.64
2023-02-12T06:23:57.055Z,8.62
2023-02-12T06:26:24.327Z,8.59
2023-02-12T06:28:51.479Z,8.58
2023-02-12T06:31:29.624Z,8.57
2023-02-12T06:33:57.863Z,8.57
2023-02-12T06:36:24.948Z,8.59
2023-02-12T06:38:52.341Z,8.59
2023-02-12T06:41:19.553Z,8.62
2023-02-12T06:43:46.119Z,8.62
2023-02-12T06:46:13.914Z,8.62
2023-02-12T06:48:41.077Z,8.61
2023-02-12T06:51:10.080Z,8.65
2023-02-12T06:53:37.341Z,8.66
2023-02-12T06:56:06.036Z,8.69
2023-02-12T06:58:32.914Z,8.69
2023-02-12T07:01:13.250Z,8.74
2023-02-12T07:03:41.175Z,8.74
2023-02-12T07:06:08.613Z,8.77
2023-02-12T07:08:38.028Z,8.79
2023-02-12T07:11:05.501Z,8.76
2023-02-12T07:13:34.836Z,8.81
2023-02-12T07:16:09.908Z,8.81
2023-02-12T07:18:37.600Z,8.83
2023-02-12T07:21:06.252Z,8.80
2023-02-12T07:23:33.485Z,8.76
2023-02-12T07:26:02.703Z,8.74
2023-02-12T07:28:29.323Z,8.74
2023-02-12T07:30:55.899Z,8.72
2023-02-12T07:33:22.399Z,8.71
2023-02-12T07:35:48.854Z,8.71
2023-02-12T07:38:15.464Z,8.74
2023-02-12T07:40:41.960Z,8.74
2023-02-12T07:43:08.493Z,8.73
2023-02-12T07:45:35.143Z,8.75
2023-02-12T07:48:01.655Z,8.73
2023-02-12T07:50:28.161Z,8.78
2023-02-12T07:52:54.671Z,8.79
2023-02-12T07:55:21.328Z,8.81
2023-02-12T07:57:47.778Z,8.83
2023-02-12T08:00:14.968Z,8.85
2023-02-12T08:02:41.567Z,8.85
2023-02-12T08:05:08.203Z,8.89
2023-02-12T08:07:34.899Z,8.91
2023-02-12T08:10:01.389Z,8.94
2023-02-12T08:12:27.881Z,8.96
2023-02-12T08:14:54.606Z,9.00
2023-02-12T08:17:21.090Z,9.00
2023-02-12T08:19:47.599Z,9.01
2023-02-12T08:22:14.052Z,9.03
2023-02-12T08:24:40.534Z,9.07
2023-02-12T08:27:07.061Z,9.15
2023-02-12T08:29:33.551Z,9.16
2023-02-12T08:32:02.391Z,9.19
2023-02-12T08:34:35.637Z,9.26
2023-02-12T08:37:04.302Z,9.32
2023-02-12T08:39:30.995Z,9.31
2023-02-12T08:41:59.335Z,9.36
2023-02-12T08:44:26.140Z,9.37
2023-02-12T08:46:53.336Z,9.35
2023-02-12T08:49:22.673Z,9.41
2023-02-12T08:51:51.975Z,9.50
2023-02-12T08:54:23.981Z,9.62
2023-02-12T08:56:54.136Z,9.70
2023-02-12T08:59:20.693Z,9.75
2023-02-12T09:01:50.602Z,9.80
2023-02-12T09:04:22.365Z,9.84
2023-02-12T09:06:50.020Z,9.93
2023-02-12T09:09:17.183Z,9.96
2023-02-12T09:11:44.746Z,10.02
2023-02-12T09:14:15.002Z,10.07
2023-02-12T09:16:42.413Z,10.06
2023-02-12T09:19:11.298Z,10.11
2023-02-12T09:21:37.800Z,10.15
2023-02-12T09:24:04.388Z,10.25
2023-02-12T09:26:31.220Z,10.27
2023-02-12T09:28:57.966Z,10.34
2023-02-12T09:31:27.266Z,10.37
2023-02-12T09:33:57.855Z,10.40
2023-02-12T09:36:24.509Z,10.47
2023-02-12T09:38:51.313Z,10.45
2023-02-12T09:41:20.643Z,10.50
2023-02-12T09:44:07.312Z,10.56
2023-02-12T09:46:39.263Z,10.57
2023-02-12T09:49:14.540Z,10.61
2023-02-12T09:51:42.790Z,10.62
2023-02-12T09:54:14.246Z,10.66
2023-02-12T09:56:46.129Z,10.72
2023-02-12T09:59:22.816Z,10.69
2023-02-12T10:01:49.382Z,10.70
2023-02-12T10:04:16.059Z,10.70
2023-02-12T10:06:55.147Z,10.76
2023-02-12T10:09:33.800Z,10.82
2023-02-12T10:12:15.264Z,10.83
2023-02-12T10:14:51.237Z,10.77
2023-02-12T10:17:29.926Z,10.77
2023-02-12T10:20:05.723Z,10.84
2023-02-12T10:22:48.198Z,10.90
2023-02-12T10:25:44.223Z,10.96
2023-02-12T10:28:41.773Z,11.09
2023-02-12T10:31:13.207Z,11.21
2023-02-12T10:33:48.948Z,11.30
2023-02-12T10:36:39.845Z,11.38
2023-02-12T10:39:15.071Z,11.44
2023-02-12T10:42:14.696Z,11.45
2023-02-12T10:44:41.235Z,11.53
2023-02-12T10:47:18.602Z,11.56
2023-02-12T10:49:45.349Z,11.63
2023-02-12T10:52:21.936Z,11.67
2023-02-12T10:54:51.800Z,11.66
2023-02-12T10:57:22.627Z,11.73
2023-02-12T10:59:53.141Z,11.80
2023-02-12T11:02:28.722Z,11.83
2023-02-12T11:04:58.054Z,11.87
2023-02-12T11:07:25.679Z,11.86
2023-02-12T11:09:54.392Z,11.89
2023-02-12T11:12:32.489Z,11.92
2023-02-12T11:15:01.707Z,11.94
2023-02-12T11:18:02.730Z,11.97
2023-02-12T11:20:41.233Z,11.94
2023-02-12T11:23:39.564Z,11.98
2023-02-12T11:26:18.159Z,12.03
2023-02-12T11:28:57.169Z,12.01
2023-02-12T11:31:29.264Z,12.03
2023-02-12T11:34:04.709Z,11.98
2023-02-12T11:36:35.250Z,11.96
2023-02-12T11:39:02.319Z,12.04
2023-02-12T11:41:34.531Z,12.04
2023-02-12T11:44:02.774Z,12.12
2023-02-12T11:46:29.363Z,12.14
2023-02-12T11:48:57.683Z,12.19
2023-02-12T11:51:30.805Z,12.19
2023-02-12T11:54:03.614Z,12.19
2023-02-12T11:56:45.912Z,12.22
2023-02-12T11:59:27.373Z,12.25
2023-02-12T12:01:57.825Z,12.33
2023-02-12T12:04:29.596Z,12.33
2023-02-12T12:07:03.376Z,12.30
2023-02-12T12:10:05.294Z,12.17
2023-02-12T12:12:31.750Z,12.13
2023-02-12T12:15:26.030Z,12.14
2023-02-12T12:18:17.491Z,12.18
2023-02-12T12:20:55.394Z,12.27
2023-02-12T12:24:00.826Z,12.20
2023-02-12T12:26:31.398Z,12.17
2023-02-12T12:29:06.592Z,12.18
2023-02-12T12:31:41.243Z,12.17
2023-02-12T12:34:07.724Z,12.13
2023-02-12T12:37:05.252Z,12.17
2023-02-12T12:39:56.784Z,12.21
2023-02-12T12:42:55.126Z,12.23
2023-02-12T12:45:40.403Z,12.26
2023-02-12T12:48:06.793Z,12.26
2023-02-12T12:50:52.104Z,12.26
2023-02-12T12:53:33.313Z,12.21
2023-02-12T12:56:11.724Z,12.21
2023-02-12T12:58:44.269Z,12.21
2023-02-12T13:01:17.033Z,12.23
2023-02-12T13:04:08.773Z,12.22
2023-02-12T13:06:47.415Z,12.18
2023-02-12T13:09:57.785Z,12.09
2023-02-12T13:12:36.232Z,12.05
2023-02-12T13:15:43.909Z,12.07
2023-02-12T13:18:43.688Z,12.06
2023-02-12T13:21:35.082Z,12.06
2023-02-12T13:24:29.586Z,12.06
2023-02-12T13:27:00.063Z,11.99
2023-02-12T13:29:32.220Z,12.01
2023-02-12T13:32:51.178Z,12.02
2023-02-12T13:35:25.650Z,12.04
2023-02-12T13:37:57.112Z,12.03
2023-02-12T13:40:26.608Z,12.04
2023-02-12T13:43:09.054Z,11.97
2023-02-12T13:45:35.642Z,12.01
2023-02-12T13:48:23.320Z,12.00
2023-02-12T13:51:08.002Z,11.98
2023-02-12T13:53:52.890Z,12.01
2023-02-12T13:56:31.539Z,12.00
2023-02-12T13:59:00.421Z,12.01
2023-02-12T14:01:53.035Z,11.98
2023-02-12T14:04:19.513Z,11.98
2023-02-12T14:07:08.075Z,11.95
2023-02-12T14:09:40.529Z,11.93
2023-02-12T14:12:12.022Z,11.94
2023-02-12T14:14:50.563Z,11.90
2023-02-12T14:17:29.291Z,11.89
2023-02-12T14:20:05.834Z,11.85
2023-02-12T14:22:32.248Z,11.87
2023-02-12T14:25:01.621Z,11.81
2023-02-12T14:27:36.224Z,11.78
2023-02-12T14:30:11.625Z,11.77
2023-02-12T14:32:46.968Z,11.76
2023-02-12T14:35:32.620Z,11.73
2023-02-12T14:38:02.539Z,11.74
2023-02-12T14:40:35.014Z,11.72
2023-02-12T14:43:23.121Z,11.74
2023-02-12T14:45:49.997Z,11.70
2023-02-12T14:48:48.885Z,11.67
2023-02-12T14:51:22.817Z,11.68
2023-02-12T14:53:51.527Z,11.68
2023-02-12T14:56:23.150Z,11.67
2023-02-12T14:58:52.850Z,11.60
2023-02-12T15:01:30.593Z,11.64
2023-02-12T15:04:02.070Z,11.60
2023-02-12T15:06:38.828Z,11.58
2023-02-12T15:09:52.248Z,11.55
2023-02-12T15:12:32.785Z,11.54
2023-02-12T15:15:13.001Z,11.53
2023-02-12T15:17:42.177Z,11.49
2023-02-12T15:20:21.070Z,11.46
2023-02-12T15:22:47.587Z,11.43
2023-02-12T15:25:24.669Z,11.43
2023-02-12T15:28:23.508Z,11.39
2023-02-12T15:30:52.305Z,11.41
2023-02-12T15:33:29.313Z,11.37
2023-02-12T15:35:57.069Z,11.34
2023-02-12T15:38:39.850Z,11.32
2023-02-12T15:41:06.738Z,11.31
2023-02-12T15:43:35.764Z,11.32
2023-02-12T15:46:04.295Z,11.32
2023-02-12T15:48:33.678Z,11.32
2023-02-12T15:51:24.903Z,11.30
2023-02-12T15:53:51.953Z,11.27
2023-02-12T15:56:22.073Z,11.19
2023-02-12T15:58:52.426Z,11.23
2023-02-12T16:01:24.998Z,11.22
2023-02-12T16:03:55.313Z,11.20
2023-02-12T16:06:23.822Z,11.18
2023-02-12T16:09:02.493Z,11.13
2023-02-12T16:11:30.763Z,11.17
2023-02-12T16:14:03.803Z,11.12
2023-02-12T16:16:44.751Z,11.11
2023-02-12T16:19:30.197Z,11.08
2023-02-12T16:21:56.646Z,11.07
2023-02-12T16:24:26.662Z,11.02
2023-02-12T16:26:54.146Z,11.01
2023-02-12T16:29:21.083Z,11.02
2023-02-12T16:32:01.812Z,11.00
2023-02-12T16:34:38.680Z,10.99
2023-02-12T16:37:49.981Z,10.96
2023-02-12T16:40:16.448Z,10.96
2023-02-12T16:42:49.131Z,10.94
2023-02-12T16:45:28.004Z,10.90
2023-02-12T16:48:00.360Z,10.91
2023-02-12T16:50:34.034Z,10.87
2023-02-12T16:53:04.135Z,10.86
2023-02-12T16:55:31.201Z,10.83
2023-02-12T16:57:57.722Z,10.80
2023-02-12T17:00:24.697Z,10.79
2023-02-12T17:02:53.750Z,10.77
2023-02-12T17:05:20.967Z,10.81
2023-02-12T17:07:47.453Z,10.80
2023-02-12T17:10:15.093Z,10.76
2023-02-12T17:12:49.797Z,10.77
2023-02-12T17:15:38.092Z,10.75
2023-02-12T17:18:04.714Z,10.76
2023-02-12T17:20:31.169Z,10.75
2023-02-12T17:22:59.409Z,10.73
2023-02-12T17:25:25.933Z,10.73
2023-02-12T17:27:52.409Z,10.71
2023-02-12T17:30:21.510Z,10.71
2023-02-12T17:32:49.663Z,10.69
2023-02-12T17:35:17.520Z,10.69
2023-02-12T17:37:44.901Z,10.68
2023-02-12T17:40:12.574Z,10.68
2023-02-12T17:42:39.169Z,10.67
2023-02-12T17:45:06.413Z,10.65
2023-02-12T17:47:39.598Z,10.66
2023-02-12T17:50:11.277Z,10.66
2023-02-12T17:52:37.812Z,10.63
2023-02-12T17:55:05.126Z,10.65
2023-02-12T17:57:32.074Z,10.63
2023-02-12T17:59:59.114Z,10.60
2023-02-12T18:02:25.796Z,10.62
2023-02-12T18:04:52.314Z,10.61
2023-02-12T18:07:18.788Z,10.60
2023-02-12T18:09:45.332Z,10.58
2023-02-12T18:12:11.850Z,10.61
2023-02-12T18:14:38.412Z,10.62
2023-02-12T18:17:04.863Z,10.63
2023-02-12T18:19:31.455Z,10.60
2023-02-12T18:21:57.932Z,10.60
2023-02-12T18:24:24.505Z,10.57
2023-02-12T18:26:51.204Z,10.59
2023-02-12T18:29:17.762Z,10.59
2023-02-12T18:31:44.768Z,10.61
2023-02-12T18:34:11.326Z,10.61
2023-02-12T18:36:37.882Z,10.56
2023-02-12T18:39:04.556Z,10.58
2023-02-12T18:41:32.768Z,10.60
2023-02-12T18:43:59.776Z,10.57
2023-02-12T18:46:29.148Z,10.57
2023-02-12T18:48:56.381Z,10.54
2023-02-12T18:51:26.119Z,10.54
2023-02-12T18:53:56.750Z,10.56
2023-02-12T18:56:23.525Z,10.54
2023-02-12T18:58:55.912Z,10.54
2023-02-12T19:01:23.017Z,10.54
2023-02-12T19:03:58.741Z,10.53
2023-02-12T19:06:25.807Z,10.53
2023-02-12T19:08:57.016Z,10.52
2023-02-12T19:11:23.896Z,10.49
2023-02-12T19:13:50.792Z,10.47
2023-02-12T19:16:20.020Z,10.46
2023-02-12T19:18:56.128Z,10.47
2023-02-12T19:21:26.079Z,10.48
2023-02-12T19:23:54.950Z,10.47
2023-02-12T19:26:22.392Z,10.47
2023-02-12T19:28:48.864Z,10.44
2023-02-12T19:31:23.923Z,10.43
2023-02-12T19:33:54.042Z,10.43
2023-02-12T19:36:20.906Z,10.45
2023-02-12T19:38:49.213Z,10.45
2023-02-12T19:41:19.183Z,10.42
2023-02-12T19:43:46.897Z,10.44
2023-02-12T19:46:16.253Z,10.40
2023-02-12T19:48:43.577Z,10.40
2023-02-12T19:51:21.356Z,10.38
2023-02-12T19:53:48.664Z,10.42
2023-02-12T19:56:16.247Z,10.42
2023-02-12T19:58:43.015Z,10.43
2023-02-12T20:01:12.244Z,10.42
2023-02-12T20:03:39.223Z,10.37
2023-02-12T20:06:14.128Z,10.38
2023-02-12T20:08:42.123Z,10.37
2023-02-12T20:11:14.197Z,10.35
2023-02-12T20:13:41.079Z,10.35
2023-02-12T20:16:13.182Z,10.34
2023-02-12T20:18:39.678Z,10.37
2023-02-12T20:21:28.246Z,10.34
2023-02-12T20:23:55.503Z,10.35
2023-02-12T20:26:22.765Z,10.34
2023-02-12T20:28:50.551Z,10.33
2023-02-12T20:31:20.992Z,10.35
2023-02-12T20:33:48.178Z,10.34
2023-02-12T20:36:15.263Z,10.31
2023-02-12T20:38:44.688Z,10.31
2023-02-12T20:41:11.730Z,10.31
2023-02-12T20:43:39.001Z,10.28
2023-02-12T20:46:07.411Z,10.31
2023-02-12T20:48:34.671Z,10.31
2023-02-12T20:51:04.064Z,10.30
2023-02-12T20:53:30.705Z,10.29
2023-02-12T20:56:10.696Z,10.28
2023-02-12T20:58:38.780Z,10.25
2023-02-12T21:01:07.677Z,10.22
2023-02-12T21:03:34.931Z,10.23
2023-02-12T21:06:01.885Z,10.22
2023-02-12T21:08:28.869Z,10.08
2023-02-12T21:11:03.122Z,10.19
2023-02-12T21:13:29.749Z,10.21
2023-02-12T21:16:08.144Z,10.17
2023-02-12T21:18:34.822Z,10.19
2023-02-12T21:21:06.222Z,10.15
2023-02-12T21:23:34.706Z,10.19
2023-02-12T21:26:06.511Z,10.20
2023-02-12T21:28:33.378Z,10.17
2023-02-12T21:31:13.660Z,10.19
2023-02-12T21:33:42.515Z,10.18
2023-02-12T21:36:17.899Z,10.19
2023-02-12T21:38:46.357Z,10.16
2023-02-12T21:41:30.854Z,10.16
2023-02-12T21:44:01.345Z,10.15
2023-02-12T21:46:28.725Z,10.16
2023-02-12T21:48:55.888Z,10.15
2023-02-12T21:51:24.867Z,10.16
2023-02-12T21:53:53.835Z,10.13
2023-02-12T21:56:20.886Z,10.13
2023-02-12T21:58:48.535Z,10.14
2023-02-12T22:01:24.658Z,10.12
2023-02-12T22:03:51.934Z,10.15
2023-02-12T22:06:20.122Z,10.15
2023-02-12T22:08:46.821Z,10.14
2023-02-12T22:11:14.492Z,10.16
2023-02-12T22:13:41.481Z,10.13
2023-02-12T22:16:09.274Z,10.14
2023-02-12T22:18:36.364Z,10.15
2023-02-12T22:21:05.036Z,10.10
2023-02-12T22:23:32.215Z,10.12
2023-02-12T22:26:10.917Z,10.12
2023-02-12T22:28:45.604Z,10.12
2023-02-12T22:31:14.953Z,10.06
2023-02-12T22:33:41.428Z,10.12
2023-02-12T22:36:09.826Z,10.10
2023-02-12T22:38:37.578Z,10.10
2023-02-12T22:41:05.531Z,10.10
2023-02-12T22:43:33.563Z,10.10
2023-02-12T22:46:00.663Z,10.09
2023-02-12T22:48:28.502Z,10.08
2023-02-12T22:50:56.856Z,10.05
2023-02-12T22:53:24.855Z,10.05
2023-02-12T22:55:51.778Z,10.06
2023-02-12T22:58:18.693Z,10.06
2023-02-12T23:00:45.184Z,10.03
2023-02-12T23:03:11.693Z,10.07
2023-02-12T23:05:39.097Z,10.05
2023-02-12T23:08:06.736Z,10.06
2023-02-12T23:10:33.723Z,10.05
2023-02-12T23:13:02.176Z,10.02
2023-02-12T23:15:28.789Z,10.01
2023-02-12T23:17:55.311Z,10.02
2023-02-12T23:20:21.891Z,9.97
2023-02-12T23:22:48.356Z,9.98
2023-02-12T23:25:14.926Z,9.98
2023-02-12T23:27:41.397Z,9.97
2023-02-12T23:30:08.977Z,9.96
2023-02-12T23:32:35.469Z,9.96
2023-02-12T23:35:02.159Z,9.95
2023-02-12T23:37:28.598Z,9.93
2023-02-12T23:39:55.070Z,9.87
2023-02-12T23:42:21.519Z,9.88
2023-02-12T23:44:48.032Z,9.93
2023-02-12T23:47:14.476Z,9.92
2023-02-12T23:49:41.002Z,9.92
2023-02-12T23:52:07.625Z,9.91
2023-02-12T23:54:34.245Z,9.90
2023-02-12T23:57:00.704Z,9.90
2023-02-12T23:59:27.238Z,9.86
